createdAt,value
2022-12-08T00:01:12.644Z,96074.34
2022-12-08T00:03:39.435Z,96077.34
2022-12-08T00:06:25.926Z,96069.38
2022-12-08T00:09:10.832Z,96066.16
2022-12-08T00:11:37.369Z,96064.84
2022-12-08T00:14:03.735Z,96069.00
2022-12-08T00:16:30.109Z,96072.31
2022-12-08T00:18:56.493Z,96066.69
2022-12-08T00:21:22.818Z,96067.53
2022-12-08T00:23:55.070Z,96060.94
2022-12-08T00:26:21.901Z,96055.31
2022-12-08T00:28:48.464Z,96060.31
2022-12-08T00:31:17.644Z,96055.22
2022-12-08T00:33:44.032Z,96051.06
2022-12-08T00:36:13.231Z,96045.59
2022-12-08T00:38:40.009Z,96044.47
2022-12-08T00:41:14.926Z,96046.00
2022-12-08T00:43:42.126Z,96046.09
2022-12-08T00:46:08.600Z,96043.00
2022-12-08T00:48:35.254Z,96048.09
2022-12-08T00:51:01.830Z,96042.91
2022-12-08T00:53:28.186Z,96041.34
2022-12-08T00:55:54.533Z,96039.78
2022-12-08T00:58:20.842Z,96030.97
2022-12-08T01:00:47.258Z,96035.84
2022-12-08T01:03:13.690Z,96040.31
2022-12-08T01:05:40.046Z,96050.66
2022-12-08T01:08:07.909Z,96037.72
2022-12-08T01:10:39.424Z,96038.97
2022-12-08T01:13:06.154Z,96029.63
2022-12-08T01:15:32.463Z,96031.69
2022-12-08T01:17:59.014Z,96047.25
2022-12-08T01:20:25.389Z,96038.66
2022-12-08T01:22:51.943Z,96030.38
2022-12-08T01:25:18.445Z,96026.13
2022-12-08T01:27:44.978Z,96022.19
2022-12-08T01:30:13.145Z,96028.81
2022-12-08T01:32:39.500Z,96031.78
2022-12-08T01:35:05.922Z,96031.09
2022-12-08T01:37:32.227Z,96025.38
2022-12-08T01:39:58.748Z,96019.28
2022-12-08T01:42:27.814Z,96021.25
2022-12-08T01:45:06.805Z,96017.41
2022-12-08T01:47:46.165Z,96020.94
2022-12-08T01:50:15.912Z,96019.28
2022-12-08T01:53:04.331Z,96011.22
2022-12-08T01:55:49.204Z,96010.66
2022-12-08T01:58:26.617Z,96014.69
2022-12-08T02:00:53.115Z,96016.56
2022-12-08T02:03:28.060Z,96012.84
2022-12-08T02:05:54.721Z,96012.00
2022-12-08T02:08:22.754Z,96003.31
2022-12-08T02:10:52.234Z,96003.75
2022-12-08T02:13:21.411Z,96004.16
2022-12-08T02:16:01.540Z,96004.88
2022-12-08T02:19:08.025Z,95992.53
2022-12-08T02:21:55.722Z,95993.97
2022-12-08T02:24:38.877Z,95987.75
2022-12-08T02:27:25.889Z,95981.75
2022-12-08T02:30:23.781Z,95979.56
2022-12-08T02:33:05.318Z,95974.81
2022-12-08T02:35:43.995Z,95975.84
2022-12-08T02:38:19.437Z,95972.22
2022-12-08T02:41:01.047Z,95967.75
2022-12-08T02:43:50.595Z,95964.03
2022-12-08T02:46:31.107Z,95962.06
2022-12-08T02:48:58.984Z,95959.97
2022-12-08T02:51:25.553Z,95957.13
2022-12-08T02:53:52.513Z,95945.38
2022-12-08T02:56:43.087Z,95944.44
2022-12-08T02:59:28.504Z,95950.44
2022-12-08T03:02:07.130Z,95945.25
2022-12-08T03:04:44.654Z,95941.94
2022-12-08T03:07:21.967Z,95939.13
2022-12-08T03:09:56.415Z,95943.78
2022-12-08T03:12:34.950Z,95941.66
2022-12-08T03:15:09.366Z,95939.69
2022-12-08T03:17:38.369Z,95928.31
2022-12-08T03:20:09.624Z,95930.69
2022-12-08T03:22:38.530Z,95925.81
2022-12-08T03:25:05.798Z,95925.16
2022-12-08T03:27:32.645Z,95926.19
2022-12-08T03:30:00.729Z,95919.66
2022-12-08T03:32:39.214Z,95910.25
2022-12-08T03:35:09.394Z,95909.50
2022-12-08T03:37:37.830Z,95908.16
2022-12-08T03:40:06.679Z,95913.75
2022-12-08T03:42:33.239Z,95909.91
2022-12-08T03:44:59.700Z,95905.97
2022-12-08T03:47:26.358Z,95899.84
2022-12-08T03:49:52.663Z,95886.03
2022-12-08T03:52:18.986Z,95889.66
2022-12-08T03:54:45.325Z,95885.25
2022-12-08T03:57:11.720Z,95880.88
2022-12-08T03:59:38.059Z,95885.63
2022-12-08T04:02:04.399Z,95891.53
2022-12-08T04:04:31.098Z,95885.25
2022-12-08T04:06:57.450Z,95884.63
2022-12-08T04:09:23.813Z,95882.06
2022-12-08T04:11:50.162Z,95884.63
2022-12-08T04:14:16.587Z,95879.88
2022-12-08T04:16:42.936Z,95881.34
2022-12-08T04:19:09.317Z,95880.72
2022-12-08T04:21:35.637Z,95875.53
2022-12-08T04:24:02.436Z,95871.19
2022-12-08T04:26:29.008Z,95863.50
2022-12-08T04:28:55.338Z,95871.16
2022-12-08T04:31:21.752Z,95878.09
2022-12-08T04:33:48.594Z,95874.69
2022-12-08T04:36:15.163Z,95870.84
2022-12-08T04:38:41.486Z,95869.81
2022-12-08T04:41:07.912Z,95872.44
2022-12-08T04:43:35.366Z,95877.50
2022-12-08T04:46:01.701Z,95871.31
2022-12-08T04:48:28.114Z,95877.84
2022-12-08T04:50:54.465Z,95877.72
2022-12-08T04:53:21.239Z,95878.44
2022-12-08T04:55:49.512Z,95870.97
2022-12-08T04:58:19.017Z,95867.47
2022-12-08T05:00:46.835Z,95872.63
2022-12-08T05:03:14.520Z,95875.53
2022-12-08T05:05:41.959Z,95869.19
2022-12-08T05:08:09.626Z,95867.22
2022-12-08T05:10:36.366Z,95866.19
2022-12-08T05:13:02.790Z,95864.16
2022-12-08T05:15:29.150Z,95856.97
2022-12-08T05:17:55.503Z,95860.81
2022-12-08T05:20:21.986Z,95858.53
2022-12-08T05:22:48.349Z,95860.50
2022-12-08T05:25:14.967Z,95859.88
2022-12-08T05:27:41.937Z,95865.34
2022-12-08T05:30:08.431Z,95860.72
2022-12-08T05:32:34.808Z,95865.81
2022-12-08T05:35:01.140Z,95863.50
2022-12-08T05:37:27.472Z,95864.88
2022-12-08T05:39:53.781Z,95864.78
2022-12-08T05:42:24.618Z,95859.88
2022-12-08T05:44:51.462Z,95860.53
2022-12-08T05:47:17.805Z,95855.78
2022-12-08T05:49:44.837Z,95845.22
2022-12-08T05:52:11.197Z,95846.06
2022-12-08T05:54:38.032Z,95846.88
2022-12-08T05:57:04.445Z,95841.81
2022-12-08T05:59:30.753Z,95844.50
2022-12-08T06:01:57.150Z,95840.66
2022-12-08T06:04:23.515Z,95847.78
2022-12-08T06:06:49.831Z,95849.06
2022-12-08T06:09:16.345Z,95856.28
2022-12-08T06:11:42.845Z,95851.47
2022-12-08T06:14:14.441Z,95856.53
2022-12-08T06:16:40.974Z,95852.19
2022-12-08T06:19:07.463Z,95862.22
2022-12-08T06:21:34.061Z,95867.25
2022-12-08T06:24:00.396Z,95865.28
2022-12-08T06:26:26.817Z,95868.28
2022-12-08T06:28:53.164Z,95868.81
2022-12-08T06:31:25.690Z,95863.53
2022-12-08T06:33:53.550Z,95863.94
2022-12-08T06:36:23.194Z,95865.56
2022-12-08T06:38:49.641Z,95860.19
2022-12-08T06:41:16.552Z,95862.75
2022-12-08T06:43:43.214Z,95857.50
2022-12-08T06:46:13.138Z,95854.59
2022-12-08T06:48:39.749Z,95855.22
2022-12-08T06:51:08.087Z,95852.94
2022-12-08T06:53:34.613Z,95860.91
2022-12-08T06:56:01.134Z,95857.91
2022-12-08T06:58:27.466Z,95856.88
2022-12-08T07:00:53.989Z,95857.50
2022-12-08T07:03:20.520Z,95856.66
2022-12-08T07:05:47.073Z,95858.34
2022-12-08T07:08:13.538Z,95862.31
2022-12-08T07:10:39.958Z,95856.56
2022-12-08T07:13:06.290Z,95858.81
2022-12-08T07:15:32.615Z,95861.47
2022-12-08T07:18:00.391Z,95861.47
2022-12-08T07:20:27.137Z,95856.69
2022-12-08T07:22:54.005Z,95863.09
2022-12-08T07:25:20.459Z,95866.22
2022-12-08T07:27:47.122Z,95865.38
2022-12-08T07:30:14.142Z,95867.06
2022-12-08T07:32:40.495Z,95870.78
2022-12-08T07:35:08.231Z,95867.16
2022-12-08T07:37:35.594Z,95869.75
2022-12-08T07:40:02.336Z,95862.72
2022-12-08T07:42:29.029Z,95865.44
2022-12-08T07:44:55.564Z,95863.09
2022-12-08T07:47:22.133Z,95861.66
2022-12-08T07:49:48.445Z,95862.16
2022-12-08T07:52:14.839Z,95860.09
2022-12-08T07:54:41.154Z,95858.03
2022-12-08T07:57:08.992Z,95848.63
2022-12-08T07:59:35.620Z,95860.63
2022-12-08T08:02:22.852Z,95852.22
2022-12-08T08:04:51.573Z,95855.00
2022-12-08T08:07:18.037Z,95847.75
2022-12-08T08:09:45.532Z,95849.91
2022-12-08T08:12:30.175Z,95851.75
2022-12-08T08:14:57.386Z,95848.75
2022-12-08T08:17:24.205Z,95845.72
2022-12-08T08:19:50.632Z,95842.22
2022-12-08T08:22:16.965Z,95852.00
2022-12-08T08:24:45.165Z,95855.78
2022-12-08T08:27:12.498Z,95860.81
2022-12-08T08:29:38.862Z,95855.31
2022-12-08T08:32:05.637Z,95852.94
2022-12-08T08:34:34.293Z,95851.47
2022-12-08T08:37:00.692Z,95842.53
2022-12-08T08:39:27.142Z,95839.50
2022-12-08T08:41:53.501Z,95838.91
2022-12-08T08:44:19.841Z,95836.19
2022-12-08T08:46:46.188Z,95840.31
2022-12-08T08:49:13.073Z,95843.25
2022-12-08T08:51:39.462Z,95845.00
2022-12-08T08:54:05.843Z,95843.97
2022-12-08T08:56:32.552Z,95842.06
2022-12-08T08:58:59.010Z,95846.31
2022-12-08T09:01:27.656Z,95849.47
2022-12-08T09:03:55.420Z,95843.47
2022-12-08T09:06:22.640Z,95835.03
2022-12-08T09:08:50.057Z,95840.00
2022-12-08T09:11:18.474Z,95838.81
2022-12-08T09:13:48.380Z,95830.47
2022-12-08T09:16:15.182Z,95833.44
2022-12-08T09:18:41.905Z,95838.16
2022-12-08T09:21:13.053Z,95837.09
2022-12-08T09:23:39.421Z,95831.50
2022-12-08T09:26:05.783Z,95836.09
2022-12-08T09:28:32.779Z,95827.84
2022-12-08T09:30:59.244Z,95829.53
2022-12-08T09:33:25.658Z,95816.25
2022-12-08T09:35:52.013Z,95829.94
2022-12-08T09:38:18.558Z,95825.63
2022-12-08T09:40:50.093Z,95823.31
2022-12-08T09:43:40.896Z,95822.63
2022-12-08T09:46:10.425Z,95814.00
2022-12-08T09:48:44.511Z,95818.13
2022-12-08T09:51:13.339Z,95810.72
2022-12-08T09:53:48.251Z,95806.38
2022-12-08T09:56:33.564Z,95812.44
2022-12-08T09:59:03.858Z,95796.53
2022-12-08T10:01:33.314Z,95794.91
2022-12-08T10:04:01.008Z,95795.31
2022-12-08T10:06:30.395Z,95785.72
2022-12-08T10:09:38.052Z,95784.78
2022-12-08T10:12:29.445Z,95784.69
2022-12-08T10:15:17.915Z,95784.56
2022-12-08T10:17:50.955Z,95773.00
2022-12-08T10:20:26.155Z,95774.66
2022-12-08T10:23:08.231Z,95766.16
2022-12-08T10:26:00.881Z,95760.63
2022-12-08T10:28:27.435Z,95760.25
2022-12-08T10:30:53.903Z,95752.00
2022-12-08T10:33:21.938Z,95743.25
2022-12-08T10:35:58.342Z,95742.03
2022-12-08T10:38:36.233Z,95739.34
2022-12-08T10:41:11.694Z,95746.75
2022-12-08T10:43:42.938Z,95739.19
2022-12-08T10:46:19.587Z,95736.59
2022-12-08T10:48:55.657Z,95730.66
2022-12-08T10:51:25.204Z,95719.50
2022-12-08T10:53:51.710Z,95724.72
2022-12-08T10:56:18.109Z,95713.47
2022-12-08T10:58:47.336Z,95706.19
2022-12-08T11:01:26.328Z,95718.03
2022-12-08T11:03:58.084Z,95698.94
2022-12-08T11:06:30.400Z,95702.91
2022-12-08T11:09:03.165Z,95694.72
2022-12-08T11:11:50.222Z,95693.66
2022-12-08T11:14:19.722Z,95692.22
2022-12-08T11:16:46.328Z,95688.84
2022-12-08T11:19:18.582Z,95681.66
2022-12-08T11:21:46.089Z,95673.59
2022-12-08T11:24:15.402Z,95673.88
2022-12-08T11:26:50.074Z,95671.44
2022-12-08T11:29:17.332Z,95664.88
2022-12-08T11:31:49.861Z,95666.25
2022-12-08T11:34:30.062Z,95652.41
2022-12-08T11:36:57.367Z,95666.09
2022-12-08T11:39:27.005Z,95669.50
2022-12-08T11:41:56.420Z,95656.78
2022-12-08T11:44:46.968Z,95653.78
2022-12-08T11:47:25.362Z,95658.72
2022-12-08T11:50:18.326Z,95653.47
2022-12-08T11:52:49.884Z,95658.13
2022-12-08T11:55:42.692Z,95649.06
2022-12-08T11:58:38.759Z,95648.50
2022-12-08T12:01:05.565Z,95640.88
2022-12-08T12:03:43.693Z,95640.88
2022-12-08T12:06:56.863Z,95642.84
2022-12-08T12:09:29.218Z,95632.44
2022-12-08T12:12:19.052Z,95626.88
2022-12-08T12:15:10.061Z,95626.47
2022-12-08T12:17:47.690Z,95623.47
2022-12-08T12:20:20.964Z,95621.84
2022-12-08T12:22:54.170Z,95620.03
2022-12-08T12:25:23.704Z,95616.63
2022-12-08T12:27:57.113Z,95613.88
2022-12-08T12:30:26.499Z,95614.41
2022-12-08T12:32:56.986Z,95615.22
2022-12-08T12:35:28.956Z,95620.66
2022-12-08T12:38:01.407Z,95608.28
2022-12-08T12:40:34.017Z,95610.22
2022-12-08T12:43:00.259Z,95614.91
2022-12-08T12:45:31.924Z,95603.81
2022-12-08T12:48:01.200Z,95608.88
2022-12-08T12:50:33.880Z,95601.75
2022-12-08T12:53:09.171Z,95608.59
2022-12-08T12:55:53.865Z,95599.56
2022-12-08T12:58:27.904Z,95599.56
2022-12-08T13:01:19.948Z,95593.75
2022-12-08T13:04:12.625Z,95594.13
2022-12-08T13:06:46.766Z,95588.81
2022-12-08T13:09:24.217Z,95592.81
2022-12-08T13:11:54.763Z,95590.63
2022-12-08T13:14:28.114Z,95589.09
2022-12-08T13:16:57.483Z,95589.09
2022-12-08T13:19:25.116Z,95587.81
2022-12-08T13:21:51.464Z,95586.84
2022-12-08T13:24:24.059Z,95587.63
2022-12-08T13:27:10.994Z,95586.00
2022-12-08T13:29:40.416Z,95590.78
2022-12-08T13:32:09.678Z,95576.44
2022-12-08T13:34:41.952Z,95580.59
2022-12-08T13:37:11.327Z,95585.09
2022-12-08T13:39:40.711Z,95573.31
2022-12-08T13:42:19.102Z,95578.13
2022-12-08T13:48:13.766Z,95577.38
2022-12-08T13:53:00.054Z,95578.97
2022-12-08T13:59:31.447Z,95577.56
2022-12-08T14:02:04.310Z,95588.53
2022-12-08T14:04:54.329Z,95586.34
2022-12-08T14:07:18.457Z,95586.06
2022-12-08T14:09:46.158Z,95587.84
2022-12-08T14:12:20.517Z,95584.16
2022-12-08T14:15:06.027Z,95586.34
2022-12-08T14:17:33.479Z,95576.25
2022-12-08T14:20:01.864Z,95581.19
2022-12-08T14:22:37.348Z,95574.88
2022-12-08T14:25:06.513Z,95576.56
2022-12-08T14:27:37.171Z,95574.06
2022-12-08T14:30:26.633Z,95575.47
2022-12-08T14:32:58.766Z,95573.28
2022-12-08T14:35:26.656Z,95574.22
2022-12-08T14:37:57.166Z,95578.19
2022-12-08T14:40:29.175Z,95589.41
2022-12-08T14:43:07.546Z,95585.31
2022-12-08T14:45:40.085Z,95582.84
2022-12-08T14:48:31.418Z,95576.16
2022-12-08T14:51:03.767Z,95578.19
2022-12-08T14:53:56.284Z,95587.38
2022-12-08T14:56:26.821Z,95581.09
2022-12-08T14:59:07.941Z,95578.72
2022-12-08T15:01:38.673Z,95575.28
2022-12-08T15:04:17.692Z,95572.28
2022-12-08T15:06:53.512Z,95571.56
2022-12-08T15:09:34.165Z,95580.84
2022-12-08T15:12:12.560Z,95588.75
2022-12-08T15:14:53.811Z,95585.03
2022-12-08T15:17:48.879Z,95583.16
2022-12-08T15:20:35.852Z,95583.84
2022-12-08T15:23:02.943Z,95575.06
2022-12-08T15:25:32.468Z,95578.91
2022-12-08T15:28:02.429Z,95572.19
2022-12-08T15:30:29.638Z,95563.81
2022-12-08T15:32:56.175Z,95563.41
2022-12-08T15:35:22.687Z,95554.59
2022-12-08T15:37:49.083Z,95555.06
2022-12-08T15:40:18.813Z,95552.88
2022-12-08T15:42:45.271Z,95546.28
2022-12-08T15:45:15.941Z,95540.13
2022-12-08T15:47:44.240Z,95544.19
2022-12-08T15:50:17.074Z,95548.66
2022-12-08T15:52:43.768Z,95544.41
2022-12-08T15:55:18.434Z,95540.03
2022-12-08T16:00:53.926Z,95539.72
2022-12-08T16:09:32.996Z,95532.50
2022-12-08T16:12:18.326Z,95527.00
2022-12-08T16:17:32.065Z,95535.09
2022-12-08T16:19:59.077Z,95526.97
2022-12-08T16:25:20.210Z,95523.63
2022-12-08T16:30:36.553Z,95514.88
2022-12-08T16:33:02.877Z,95510.25
2022-12-08T16:35:30.542Z,95516.09
2022-12-08T16:37:57.434Z,95514.63
2022-12-08T16:40:23.848Z,95514.19
2022-12-08T16:42:50.528Z,95514.44
2022-12-08T16:45:20.229Z,95515.88
2022-12-08T16:47:49.050Z,95523.84
2022-12-08T16:50:46.197Z,95526.47
2022-12-08T16:53:13.038Z,95523.44
2022-12-08T16:55:40.032Z,95520.69
2022-12-08T16:58:06.796Z,95530.13
2022-12-08T17:00:37.379Z,95535.25
2022-12-08T17:03:10.779Z,95530.81
2022-12-08T17:05:39.581Z,95531.66
2022-12-08T17:08:05.944Z,95527.78
2022-12-08T17:10:34.435Z,95527.78
2022-12-08T17:13:02.145Z,95522.22
2022-12-08T17:15:28.845Z,95525.09
2022-12-08T17:17:55.229Z,95524.19
2022-12-08T17:20:26.437Z,95525.72
2022-12-08T17:22:58.937Z,95523.94
2022-12-08T17:25:26.640Z,95517.19
2022-12-08T17:27:53.130Z,95513.28
2022-12-08T17:30:19.641Z,95521.44
2022-12-08T17:32:45.986Z,95516.78
2022-12-08T17:35:13.225Z,95521.00
2022-12-08T17:37:39.570Z,95538.38
2022-12-08T17:40:06.912Z,95545.09
2022-12-08T17:42:33.540Z,95539.31
2022-12-08T17:44:59.858Z,95535.53
2022-12-08T17:47:26.185Z,95531.06
2022-12-08T17:49:52.585Z,95532.38
2022-12-08T17:52:18.963Z,95528.13
2022-12-08T17:54:45.357Z,95526.59
2022-12-08T17:57:11.695Z,95533.09
2022-12-08T17:59:38.154Z,95539.38
2022-12-08T18:02:04.652Z,95539.81
2022-12-08T18:04:31.259Z,95529.91
2022-12-08T18:07:00.107Z,95528.97
2022-12-08T18:09:26.516Z,95531.38
2022-12-08T18:11:52.943Z,95528.28
2022-12-08T18:14:19.308Z,95525.97
2022-12-08T18:16:46.903Z,95528.31
2022-12-08T18:19:14.545Z,95532.28
2022-12-08T18:21:41.546Z,95522.66
2022-12-08T18:24:15.118Z,95518.19
2022-12-08T18:26:41.690Z,95520.78
2022-12-08T18:29:08.054Z,95523.81
2022-12-08T18:31:34.387Z,95518.19
2022-12-08T18:34:00.737Z,95520.28
2022-12-08T18:36:27.076Z,95517.94
2022-12-08T18:38:55.595Z,95515.03
2022-12-08T18:41:25.566Z,95516.75
2022-12-08T18:43:53.677Z,95516.19
2022-12-08T18:46:20.291Z,95506.41
2022-12-08T18:48:49.247Z,95504.06
2022-12-08T18:51:21.235Z,95506.75
2022-12-08T18:53:48.576Z,95497.44
2022-12-08T18:56:34.495Z,95502.78
2022-12-08T18:59:05.431Z,95502.41
2022-12-08T19:01:33.953Z,95504.16
2022-12-08T19:06:49.847Z,95497.81
2022-12-08T19:09:17.331Z,95494.75
2022-12-08T19:11:44.194Z,95496.63
2022-12-08T19:14:10.977Z,95493.88
2022-12-08T19:16:38.064Z,95493.19
2022-12-08T19:19:05.013Z,95488.25
2022-12-08T19:21:32.455Z,95485.06
2022-12-08T19:23:59.855Z,95481.91
2022-12-08T19:26:27.999Z,95482.97
2022-12-08T19:28:54.687Z,95477.47
2022-12-08T19:31:21.583Z,95476.88
2022-12-08T19:33:47.987Z,95481.44
2022-12-08T19:36:17.739Z,95481.94
2022-12-08T19:39:02.786Z,95475.81
2022-12-08T19:41:48.203Z,95478.84
2022-12-08T19:44:52.862Z,95472.03
2022-12-08T19:47:24.662Z,95481.63
2022-12-08T19:49:52.087Z,95473.25
2022-12-08T19:52:18.841Z,95478.81
2022-12-08T19:54:45.231Z,95481.19
2022-12-08T19:57:11.639Z,95478.97
2022-12-08T19:59:39.276Z,95472.72
2022-12-08T20:02:07.000Z,95470.38
2022-12-08T20:04:33.406Z,95462.25
2022-12-08T20:07:00.061Z,95463.91
2022-12-08T20:09:26.499Z,95465.41
2022-12-08T20:11:54.610Z,95465.50
2022-12-08T20:14:22.940Z,95461.44
2022-12-08T20:16:50.439Z,95463.06
2022-12-08T20:19:17.581Z,95457.19
2022-12-08T20:21:43.950Z,95459.19
2022-12-08T20:24:10.418Z,95464.47
2022-12-08T20:26:36.839Z,95464.72
2022-12-08T20:29:03.283Z,95467.19
2022-12-08T20:31:31.427Z,95456.25
2022-12-08T20:33:57.842Z,95460.69
2022-12-08T20:36:25.289Z,95462.38
2022-12-08T20:38:53.087Z,95463.28
2022-12-08T20:41:20.246Z,95459.97
2022-12-08T20:43:47.864Z,95466.94
2022-12-08T20:46:16.590Z,95467.50
2022-12-08T20:48:44.164Z,95471.16
2022-12-08T20:51:18.545Z,95467.63
2022-12-08T20:53:45.670Z,95464.31
2022-12-08T20:56:20.678Z,95459.78
2022-12-08T20:58:47.730Z,95465.75
2022-12-08T21:01:17.664Z,95460.94
2022-12-08T21:03:45.216Z,95465.03
2022-12-08T21:06:12.774Z,95462.78
2022-12-08T21:08:40.427Z,95449.16
2022-12-08T21:11:07.962Z,95454.78
2022-12-08T21:13:34.635Z,95456.91
2022-12-08T21:16:01.131Z,95454.34
2022-12-08T21:18:27.682Z,95454.56
2022-12-08T21:21:05.839Z,95450.81
2022-12-08T21:23:33.681Z,95452.47
2022-12-08T21:26:00.107Z,95442.56
2022-12-08T21:28:44.738Z,95441.50
2022-12-08T21:31:16.502Z,95438.09
2022-12-08T21:33:50.788Z,95435.16
2022-12-08T21:36:51.057Z,95427.78
2022-12-08T21:39:17.622Z,95426.13
2022-12-08T21:42:12.074Z,95435.53
2022-12-08T21:44:38.981Z,95434.13
2022-12-08T21:47:05.659Z,95433.66
2022-12-08T21:49:40.101Z,95432.47
2022-12-08T21:52:09.165Z,95418.38
2022-12-08T21:54:35.925Z,95419.91
2022-12-08T21:57:02.379Z,95414.50
2022-12-08T21:59:28.789Z,95414.59
2022-12-08T22:01:55.309Z,95419.19
2022-12-08T22:04:22.431Z,95412.59
2022-12-08T22:06:49.392Z,95417.66
2022-12-08T22:09:15.981Z,95407.53
2022-12-08T22:11:43.667Z,95406.81
2022-12-08T22:14:14.400Z,95400.59
2022-12-08T22:16:42.155Z,95395.66
2022-12-08T22:19:08.758Z,95396.72
2022-12-08T22:21:35.305Z,95394.38
2022-12-08T22:24:01.805Z,95399.53
2022-12-08T22:26:28.249Z,95395.19
2022-12-08T22:28:54.674Z,95392.72
2022-12-08T22:31:21.905Z,95384.34
2022-12-08T22:33:49.488Z,95384.00
2022-12-08T22:36:24.623Z,95383.53
2022-12-08T22:38:52.077Z,95388.47
2022-12-08T22:41:19.339Z,95388.50
2022-12-08T22:43:46.838Z,95389.88
2022-12-08T22:46:16.705Z,95388.25
2022-12-08T22:48:43.787Z,95396.72
2022-12-08T22:51:10.252Z,95382.03
2022-12-08T22:53:37.139Z,95369.53
2022-12-08T22:56:08.294Z,95375.66
2022-12-08T22:58:35.339Z,95355.75
2022-12-08T23:01:02.120Z,95362.97
2022-12-08T23:03:28.758Z,95357.78
2022-12-08T23:05:55.427Z,95361.75
2022-12-08T23:08:25.173Z,95361.75
2022-12-08T23:10:53.847Z,95372.25
2022-12-08T23:13:21.220Z,95371.31
2022-12-08T23:15:48.141Z,95362.72
2022-12-08T23:18:18.765Z,95356.00
2022-12-08T23:20:46.495Z,95351.88
2022-12-08T23:23:13.851Z,95354.59
2022-12-08T23:25:41.523Z,95352.84
2022-12-08T23:28:08.379Z,95350.69
2022-12-08T23:30:35.411Z,95358.81
2022-12-08T23:33:02.262Z,95360.25
2022-12-08T23:35:28.682Z,95360.09
2022-12-08T23:37:55.037Z,95347.63
2022-12-08T23:40:21.494Z,95343.25
2022-12-08T23:42:48.433Z,95349.84
2022-12-08T23:45:14.961Z,95357.41
2022-12-08T23:47:41.448Z,95346.56
2022-12-08T23:50:08.714Z,95352.34
2022-12-08T23:52:35.369Z,95339.50
2022-12-08T23:55:01.803Z,95341.94
2022-12-08T23:57:28.627Z,95335.97
2022-12-08T23:59:54.993Z,95335.50
